Terminal Aerodrome Forecast
Issued by NWS

Home | Current Version | Previous Version | Text Only | Print | Product List | Glossary Off
Versions: 1 2 3 4 5 6 7 8 9 10 11 12 13

000
FTUS45 KGGW 032322
TAFGDV
TAF
KGDV 032322Z 0400/0424 27012KT P6SM BKN060
     FM040600 28011KT P6SM SCT050
     FM041200 24007KT P6SM BKN040
     FM041800 20009KT P6SM BKN050=

USA.gov is the U.S. government's official web portal to all federal, state and local government web resources and services.